createdAt,value
2018-01-25T05:00:42.273Z,0
2018-01-25T05:01:07.753Z,0
2018-01-25T05:01:33.261Z,0
2018-01-25T05:01:58.742Z,0
2018-01-25T05:02:24.315Z,0
2018-01-25T05:02:49.844Z,0
2018-01-25T05:03:15.296Z,0
2018-01-25T05:03:40.806Z,0
2018-01-25T05:04:06.258Z,0
2018-01-25T05:04:31.726Z,0
2018-01-25T05:04:57.204Z,0
2018-01-25T05:06:05.948Z,0
2018-01-25T05:06:31.389Z,0
2018-01-25T05:06:56.932Z,0
2018-01-25T05:07:22.446Z,0
2018-01-25T05:07:47.992Z,0
2018-01-25T05:08:13.469Z,0
2018-01-25T05:08:38.968Z,0
2018-01-25T05:09:04.431Z,0
2018-01-25T05:09:29.936Z,0
2018-01-25T05:09:55.431Z,0
2018-01-25T05:10:20.959Z,0
2018-01-25T05:10:46.443Z,0
2018-01-25T05:11:11.937Z,0
2018-01-25T05:11:37.440Z,0
2018-01-25T05:12:02.917Z,0
2018-01-25T05:12:28.389Z,0
2018-01-25T05:12:53.954Z,0
2018-01-25T05:13:19.448Z,0
2018-01-25T05:13:44.948Z,0
2018-01-25T05:14:10.741Z,0
2018-01-25T05:15:34.509Z,0
2018-01-25T05:16:00.039Z,0
2018-01-25T05:16:25.766Z,0
2018-01-25T05:16:51.062Z,0
2018-01-25T05:17:16.575Z,0
2018-01-25T05:17:42.175Z,0
2018-01-25T05:18:07.536Z,0
2018-01-25T05:18:33.052Z,0
2018-01-25T05:18:58.546Z,0
2018-01-25T05:19:24.058Z,0
2018-01-25T05:19:49.533Z,0
2018-01-25T05:20:53.136Z,0
2018-01-25T05:21:18.630Z,0
2018-01-25T05:21:44.217Z,0
2018-01-25T05:22:09.651Z,0
2018-01-25T05:22:35.145Z,0
2018-01-25T05:23:00.639Z,0
2018-01-25T05:23:26.208Z,0
2018-01-25T05:23:51.712Z,0
2018-01-25T05:24:17.180Z,0
2018-01-25T05:24:42.736Z,0
2018-01-25T05:25:08.237Z,0
2018-01-25T05:25:33.723Z,0
2018-01-25T05:25:59.220Z,0
2018-01-25T05:26:24.713Z,0
2018-01-25T05:26:50.214Z,0
2018-01-25T05:27:15.752Z,0
2018-01-25T05:28:24.484Z,0
2018-01-25T05:28:50.002Z,0
2018-01-25T05:29:15.834Z,0
2018-01-25T05:29:41.228Z,0
2018-01-25T05:30:06.719Z,0
2018-01-25T05:31:11.420Z,0
2018-01-25T05:31:36.921Z,0
2018-01-25T05:32:02.440Z,0
2018-01-25T05:32:27.917Z,0
2018-01-25T05:33:47.227Z,0
2018-01-25T05:34:12.742Z,0
2018-01-25T05:34:38.191Z,0
2018-01-25T05:35:03.677Z,0
2018-01-25T05:35:29.175Z,0
2018-01-25T05:35:54.667Z,0
2018-01-25T05:36:20.163Z,0
2018-01-25T05:36:45.658Z,0
2018-01-25T05:37:54.333Z,0
2018-01-25T05:38:19.788Z,0
2018-01-25T05:38:45.264Z,0
2018-01-25T05:39:10.775Z,0
2018-01-25T05:39:36.259Z,0
2018-01-25T05:40:01.773Z,0
2018-01-25T05:40:27.278Z,0
2018-01-25T05:40:52.819Z,0
2018-01-25T05:41:18.358Z,0
2018-01-25T05:41:44.150Z,0
2018-01-25T05:42:09.780Z,0
2018-01-25T05:42:35.267Z,0
2018-01-25T05:43:38.873Z,0
2018-01-25T05:44:04.418Z,0
2018-01-25T05:44:30.112Z,0
2018-01-25T05:44:55.651Z,0
2018-01-25T05:46:20.635Z,0
2018-01-25T05:46:46.138Z,0
2018-01-25T05:47:11.711Z,0
2018-01-25T05:47:37.169Z,0
2018-01-25T05:48:02.660Z,0
2018-01-25T05:48:28.252Z,0
2018-01-25T05:48:53.758Z,0
2018-01-25T05:49:19.184Z,0
2018-01-25T05:49:44.641Z,0
2018-01-25T05:50:10.150Z,0
2018-01-25T05:50:35.611Z,0
2018-01-25T05:51:01.109Z,0
2018-01-25T05:51:26.600Z,0
2018-01-25T05:51:52.037Z,0
2018-01-25T05:52:17.550Z,0
2018-01-25T05:52:43.042Z,0
2018-01-25T05:53:08.535Z,0
2018-01-25T05:53:34.000Z,0
2018-01-25T05:53:59.602Z,0
2018-01-25T05:54:24.996Z,0
2018-01-25T05:54:50.577Z,0
2018-01-25T05:55:16.087Z,0
2018-01-25T05:55:41.597Z,0
2018-01-25T05:56:07.082Z,0
2018-01-25T05:56:32.550Z,0
2018-01-25T05:56:58.044Z,0
2018-01-25T05:57:23.503Z,0
2018-01-25T05:57:49.111Z,0
2018-01-25T05:58:14.489Z,0
2018-01-25T05:58:40.098Z,0
2018-01-25T05:59:05.579Z,0
2018-01-25T05:59:31.086Z,0
2018-01-25T05:59:56.565Z,0
2018-01-25T06:00:22.084Z,0
2018-01-25T06:00:47.575Z,0
2018-01-25T06:01:13.193Z,0
2018-01-25T06:01:38.698Z,0
2018-01-25T06:02:04.211Z,0
2018-01-25T06:02:29.569Z,0
2018-01-25T06:02:55.060Z,0
2018-01-25T06:04:13.993Z,0
2018-01-25T06:04:39.473Z,0
2018-01-25T06:05:04.940Z,0
2018-01-25T06:05:30.406Z,0
2018-01-25T06:05:55.880Z,0
2018-01-25T06:06:59.499Z,0
2018-01-25T06:07:24.984Z,0
2018-01-25T06:07:50.484Z,0
2018-01-25T06:09:14.526Z,0
2018-01-25T06:09:39.987Z,0
2018-01-25T06:10:05.470Z,0
2018-01-25T06:10:30.957Z,0
2018-01-25T06:10:56.456Z,0
2018-01-25T06:11:21.968Z,0
2018-01-25T06:11:47.456Z,0
2018-01-25T06:12:12.950Z,0
2018-01-25T06:12:38.458Z,0
2018-01-25T06:13:03.950Z,0
2018-01-25T06:13:29.402Z,0
2018-01-25T06:13:54.932Z,0
2018-01-25T06:15:18.959Z,0
2018-01-25T06:15:44.412Z,0
2018-01-25T06:16:09.948Z,0
2018-01-25T06:16:35.443Z,0
2018-01-25T06:17:00.911Z,0
2018-01-25T06:17:26.395Z,0
2018-01-25T06:17:51.870Z,0
2018-01-25T06:18:17.353Z,0
2018-01-25T06:18:42.823Z,0
2018-01-25T06:19:46.481Z,0
2018-01-25T06:20:11.966Z,0
2018-01-25T06:20:37.423Z,0
2018-01-25T06:21:02.887Z,0
2018-01-25T06:21:28.381Z,0
2018-01-25T06:21:53.898Z,0
2018-01-25T06:22:19.341Z,0
2018-01-25T06:22:44.830Z,0
2018-01-25T06:23:10.282Z,0
2018-01-25T06:23:35.771Z,0
2018-01-25T06:24:01.280Z,0
2018-01-25T06:24:26.751Z,0
2018-01-25T06:24:52.306Z,0
2018-01-25T06:25:17.772Z,0
2018-01-25T06:25:43.330Z,0
2018-01-25T06:26:08.707Z,0
2018-01-25T06:26:34.227Z,0
2018-01-25T06:26:59.733Z,0
2018-01-25T06:27:25.217Z,0
2018-01-25T06:27:50.689Z,0
2018-01-25T06:28:16.221Z,0
2018-01-25T06:28:41.677Z,0
2018-01-25T06:29:07.212Z,0
2018-01-25T06:29:32.721Z,0
2018-01-25T06:29:58.195Z,0
2018-01-25T06:30:23.683Z,0
2018-01-25T06:30:49.165Z,0
2018-01-25T06:31:14.648Z,0
2018-01-25T06:31:40.132Z,0
2018-01-25T06:32:05.667Z,0
2018-01-25T06:32:31.180Z,0
2018-01-25T06:33:39.867Z,0
2018-01-25T06:34:05.452Z,0
2018-01-25T06:34:30.967Z,0
2018-01-25T06:34:56.474Z,0
2018-01-25T06:35:21.925Z,0
2018-01-25T06:35:47.436Z,0
2018-01-25T06:36:12.935Z,0
2018-01-25T06:36:38.403Z,0
2018-01-25T06:37:42.000Z,0
2018-01-25T06:38:07.542Z,0
2018-01-25T06:38:33.005Z,0
2018-01-25T06:38:58.509Z,0
2018-01-25T06:39:23.960Z,0
2018-01-25T06:39:49.443Z,0
2018-01-25T06:40:14.964Z,0
2018-01-25T06:40:40.455Z,0
2018-01-25T06:41:05.952Z,0
2018-01-25T06:41:31.429Z,0
2018-01-25T06:41:56.921Z,0
2018-01-25T06:42:22.400Z,0
2018-01-25T06:42:47.871Z,0
2018-01-25T06:43:13.349Z,0
2018-01-25T06:43:38.829Z,0
2018-01-25T06:44:04.332Z,0
2018-01-25T06:44:29.751Z,0
2018-01-25T06:44:55.224Z,0
2018-01-25T06:45:20.690Z,0
2018-01-25T06:45:46.144Z,0
2018-01-25T06:46:11.617Z,0
2018-01-25T06:46:37.081Z,0
2018-01-25T06:47:02.606Z,0
2018-01-25T06:47:28.100Z,0
2018-01-25T06:47:53.593Z,0
2018-01-25T06:48:19.057Z,0
2018-01-25T06:48:44.564Z,0
2018-01-25T06:49:10.064Z,0
2018-01-25T06:49:35.500Z,0
2018-01-25T06:50:00.994Z,0
2018-01-25T06:50:26.506Z,0
2018-01-25T06:50:52.000Z,0
2018-01-25T06:51:17.466Z,4
2018-01-25T06:51:42.931Z,4
2018-01-25T06:52:08.424Z,4
2018-01-25T06:52:33.979Z,4
2018-01-25T06:52:59.477Z,4
2018-01-25T06:53:24.955Z,4
2018-01-25T06:53:50.456Z,4
2018-01-25T06:54:15.972Z,4
2018-01-25T06:54:41.467Z,4
2018-01-25T06:55:07.003Z,4
2018-01-25T06:55:32.416Z,4
2018-01-25T06:55:57.919Z,4
2018-01-25T06:56:23.398Z,4
2018-01-25T06:56:48.909Z,4
2018-01-25T06:57:14.381Z,8
2018-01-25T06:57:39.863Z,8
2018-01-25T06:58:05.402Z,4
2018-01-25T06:58:30.900Z,4
2018-01-25T06:58:56.421Z,8
2018-01-25T06:59:21.940Z,8
2018-01-25T06:59:47.433Z,8
2018-01-25T07:00:12.898Z,8
2018-01-25T07:00:38.440Z,8
2018-01-25T07:01:03.908Z,12
2018-01-25T07:01:29.366Z,12
2018-01-25T07:01:54.972Z,8
2018-01-25T07:02:20.452Z,12
2018-01-25T07:02:45.910Z,12
2018-01-25T07:03:54.636Z,16
2018-01-25T07:04:20.117Z,16
2018-01-25T07:04:45.578Z,16
2018-01-25T07:05:11.057Z,20
2018-01-25T07:05:36.561Z,16
2018-01-25T07:06:02.029Z,20
2018-01-25T07:06:27.522Z,24
2018-01-25T07:06:52.989Z,20
2018-01-25T07:07:18.444Z,24
2018-01-25T07:07:43.912Z,24
2018-01-25T07:08:09.435Z,28
2018-01-25T07:08:34.957Z,28
2018-01-25T07:09:00.415Z,32
2018-01-25T07:09:25.928Z,32
2018-01-25T07:09:51.395Z,32
2018-01-25T07:10:16.914Z,32
2018-01-25T07:10:42.364Z,32
2018-01-25T07:11:07.868Z,36
2018-01-25T07:12:26.809Z,44
2018-01-25T07:12:52.263Z,44
2018-01-25T07:13:17.760Z,48
2018-01-25T07:14:26.514Z,52
2018-01-25T07:14:51.924Z,52
2018-01-25T07:16:00.606Z,60
2018-01-25T07:16:26.049Z,60
2018-01-25T07:16:51.528Z,64
2018-01-25T07:17:17.059Z,68
2018-01-25T07:17:42.485Z,68
2018-01-25T07:18:07.945Z,72
2018-01-25T07:18:33.457Z,76
2018-01-25T07:18:58.928Z,76
2018-01-25T07:19:24.448Z,84
2018-01-25T07:19:49.916Z,88
2018-01-25T07:20:15.407Z,92
2018-01-25T07:20:40.929Z,92
2018-01-25T07:21:06.399Z,96
2018-01-25T07:21:31.948Z,100
2018-01-25T07:21:57.416Z,100
2018-01-25T07:22:22.881Z,104
2018-01-25T07:22:48.389Z,108
2018-01-25T07:23:13.829Z,108
2018-01-25T07:23:39.363Z,112
2018-01-25T07:24:04.845Z,116
2018-01-25T07:24:30.301Z,120
2018-01-25T07:24:55.786Z,124
2018-01-25T07:25:21.301Z,124
2018-01-25T07:25:46.761Z,132
2018-01-25T07:27:05.754Z,148
2018-01-25T07:27:31.226Z,152
2018-01-25T07:28:35.152Z,172
2018-01-25T07:29:00.616Z,180
2018-01-25T07:30:19.543Z,204
2018-01-25T07:30:44.994Z,212
2018-01-25T07:31:10.481Z,220
2018-01-25T07:31:35.983Z,224
2018-01-25T07:32:49.812Z,252
2018-01-25T07:33:15.344Z,256
2018-01-25T07:33:40.807Z,268
2018-01-25T07:34:06.327Z,276
2018-01-25T07:34:31.864Z,288
2018-01-25T07:34:57.328Z,296
2018-01-25T07:35:22.797Z,308
2018-01-25T07:35:48.300Z,316
2018-01-25T07:36:13.800Z,324
2018-01-25T07:36:39.246Z,336
2018-01-25T07:37:04.729Z,344
2018-01-25T07:38:13.463Z,372
2018-01-25T07:38:38.951Z,376
2018-01-25T07:39:04.407Z,388
2018-01-25T07:39:29.941Z,396
2018-01-25T07:39:55.435Z,404
2018-01-25T07:40:20.887Z,412
2018-01-25T07:40:46.369Z,424
2018-01-25T07:41:11.860Z,428
2018-01-25T07:41:37.333Z,436
2018-01-25T07:42:02.837Z,448
2018-01-25T07:42:28.329Z,456
2018-01-25T07:42:53.818Z,468
2018-01-25T07:43:19.305Z,480
2018-01-25T07:44:27.997Z,512
2018-01-25T07:44:53.462Z,524
2018-01-25T07:45:18.942Z,536
2018-01-25T07:45:44.401Z,548
2018-01-25T07:46:09.897Z,556
2018-01-25T07:46:35.403Z,568
2018-01-25T07:47:00.825Z,576
2018-01-25T07:47:26.347Z,584
2018-01-25T07:47:51.829Z,592
2018-01-25T07:48:17.271Z,596
2018-01-25T07:48:42.766Z,604
2018-01-25T07:49:08.303Z,608
2018-01-25T07:49:33.807Z,612
2018-01-25T07:49:59.288Z,620
2018-01-25T07:50:24.733Z,628
2018-01-25T07:50:50.292Z,636
2018-01-25T07:51:15.780Z,648
2018-01-25T07:52:24.458Z,688
2018-01-25T07:52:49.926Z,704
2018-01-25T07:53:15.491Z,716
2018-01-25T07:53:40.902Z,736
2018-01-25T07:54:06.429Z,752
2018-01-25T07:54:31.910Z,768
2018-01-25T07:54:57.366Z,784
2018-01-25T07:55:22.836Z,800
2018-01-25T07:55:48.329Z,816
2018-01-25T07:56:13.788Z,832
2018-01-25T07:56:39.236Z,844
2018-01-25T07:57:04.772Z,856
2018-01-25T07:57:30.317Z,872
2018-01-25T07:57:55.788Z,884
2018-01-25T07:58:21.236Z,900
2018-01-25T07:58:46.712Z,912
2018-01-25T07:59:12.179Z,924
2018-01-25T07:59:37.635Z,932
2018-01-25T08:00:03.092Z,940
2018-01-25T08:00:28.637Z,952
2018-01-25T08:00:54.173Z,964
2018-01-25T08:01:19.689Z,972
2018-01-25T08:01:45.132Z,980
2018-01-25T08:02:10.579Z,996
2018-01-25T08:02:36.087Z,1012
2018-01-25T08:03:01.563Z,1028
2018-01-25T08:03:27.048Z,1044
2018-01-25T08:03:52.548Z,1060
2018-01-25T08:04:18.038Z,1068
2018-01-25T08:04:43.475Z,1076
2018-01-25T08:05:08.964Z,1080
2018-01-25T08:05:34.477Z,1092
2018-01-25T08:05:59.946Z,1100
2018-01-25T08:07:03.620Z,1116
2018-01-25T08:07:29.058Z,1120
2018-01-25T08:07:54.511Z,1132
2018-01-25T08:08:20.045Z,1148
2018-01-25T08:08:45.437Z,1168
2018-01-25T08:09:10.931Z,1180
2018-01-25T08:09:36.713Z,1200
2018-01-25T08:10:02.301Z,1220
2018-01-25T08:10:27.744Z,1240
2018-01-25T08:10:53.214Z,1256
2018-01-25T08:11:18.725Z,1276
2018-01-25T08:11:44.197Z,1296
2018-01-25T08:12:09.733Z,1320
2018-01-25T08:12:35.198Z,1336
2018-01-25T08:13:00.674Z,1356
2018-01-25T08:13:26.122Z,1372
2018-01-25T08:13:51.624Z,1396
2018-01-25T08:14:17.068Z,1420
2018-01-25T08:14:42.570Z,1436
2018-01-25T08:15:08.010Z,1452
2018-01-25T08:15:33.485Z,1472
2018-01-25T08:15:58.972Z,1488
2018-01-25T08:16:24.446Z,1504
2018-01-25T08:16:49.894Z,1524
2018-01-25T08:17:15.424Z,1536
2018-01-25T08:17:40.837Z,1540
2018-01-25T08:18:06.330Z,1536
2018-01-25T08:18:31.788Z,1556
2018-01-25T08:18:57.250Z,1568
2018-01-25T08:19:22.701Z,1580
2018-01-25T08:19:48.168Z,1584
2018-01-25T08:20:13.648Z,1592
2018-01-25T08:20:39.123Z,1608
2018-01-25T08:21:04.593Z,1616
2018-01-25T08:21:30.113Z,1620
2018-01-25T08:21:55.572Z,1640
2018-01-25T08:22:21.044Z,1668
2018-01-25T08:22:46.508Z,1700
2018-01-25T08:23:11.952Z,1732
2018-01-25T08:23:37.441Z,1760
2018-01-25T08:24:02.963Z,1788
2018-01-25T08:24:28.417Z,1808
2018-01-25T08:24:53.904Z,1828
2018-01-25T08:25:19.462Z,1840
2018-01-25T08:25:44.948Z,1856
2018-01-25T08:26:10.434Z,1876
2018-01-25T08:26:35.934Z,1892
2018-01-25T08:27:01.424Z,1912
2018-01-25T08:27:26.904Z,1924
2018-01-25T08:27:52.384Z,1944
2018-01-25T08:28:17.818Z,1960
2018-01-25T08:28:43.465Z,1988
2018-01-25T08:29:08.951Z,2008
2018-01-25T08:29:34.429Z,2028
2018-01-25T08:29:59.893Z,2048
2018-01-25T08:30:25.369Z,2076
2018-01-25T08:30:50.810Z,2104
2018-01-25T08:31:16.326Z,2128
2018-01-25T08:31:41.852Z,2144
2018-01-25T08:32:07.377Z,2160
2018-01-25T08:32:32.873Z,2168
2018-01-25T08:32:58.886Z,2164
2018-01-25T08:33:24.380Z,2160
2018-01-25T08:33:49.865Z,2164
2018-01-25T08:34:53.490Z,2180
2018-01-25T08:35:18.959Z,2196
2018-01-25T08:35:44.435Z,2208
2018-01-25T08:36:09.900Z,2216
2018-01-25T08:37:23.692Z,2228
2018-01-25T08:37:49.157Z,2232
2018-01-25T08:38:14.664Z,2240
2018-01-25T08:38:40.144Z,2248
2018-01-25T08:39:05.753Z,2256
2018-01-25T08:39:31.152Z,2260
2018-01-25T08:39:56.615Z,2268
2018-01-25T08:40:22.094Z,2276
2018-01-25T08:40:47.587Z,2288
2018-01-25T08:41:13.061Z,2308
2018-01-25T08:41:38.548Z,2336
2018-01-25T08:42:04.001Z,2376
2018-01-25T08:42:29.465Z,2432
2018-01-25T08:42:55.036Z,2488
2018-01-25T08:43:20.544Z,2548
2018-01-25T08:43:45.992Z,2604
2018-01-25T08:44:11.548Z,2656
2018-01-25T08:44:37.040Z,2676
2018-01-25T08:45:02.513Z,2680
2018-01-25T08:45:28.018Z,2664
2018-01-25T08:45:53.537Z,2632
2018-01-25T08:46:19.017Z,2560
2018-01-25T08:46:44.523Z,2588
2018-01-25T08:47:10.026Z,2580
2018-01-25T08:47:35.515Z,2580
2018-01-25T08:48:01.066Z,2592
2018-01-25T08:48:26.525Z,2608
2018-01-25T08:48:51.970Z,2624
2018-01-25T08:49:17.438Z,2632
2018-01-25T08:49:42.922Z,2636
2018-01-25T08:50:08.415Z,2652
2018-01-25T08:50:33.898Z,2684
2018-01-25T08:50:59.418Z,2712
2018-01-25T08:52:18.378Z,2732
2018-01-25T08:52:43.859Z,2684
2018-01-25T08:53:09.361Z,2612
2018-01-25T08:53:34.920Z,2552
2018-01-25T08:54:00.530Z,2512
2018-01-25T08:54:26.293Z,2492
2018-01-25T08:54:51.845Z,2480
2018-01-25T08:55:17.574Z,2472
2018-01-25T08:55:43.166Z,2476
2018-01-25T08:56:08.666Z,2476
2018-01-25T08:56:34.233Z,2472
2018-01-25T08:56:59.663Z,2464
2018-01-25T08:57:25.125Z,2468
2018-01-25T08:57:50.717Z,2476
2018-01-25T08:58:16.127Z,2488
2018-01-25T08:58:41.613Z,2512
2018-01-25T08:59:07.235Z,2532
2018-01-25T08:59:32.718Z,2564
2018-01-25T08:59:58.234Z,2600
2018-01-25T09:00:23.747Z,2636
2018-01-25T09:00:49.196Z,2668
2018-01-25T09:01:14.766Z,2696
2018-01-25T09:01:40.238Z,2716
2018-01-25T09:02:05.739Z,2728
2018-01-25T09:02:31.298Z,2740
2018-01-25T09:02:56.837Z,2752
2018-01-25T09:03:22.318Z,2768
2018-01-25T09:03:47.764Z,2800
2018-01-25T09:04:13.231Z,2828
2018-01-25T09:04:38.846Z,2856
2018-01-25T09:05:04.350Z,2880
2018-01-25T09:05:29.844Z,2904
2018-01-25T09:05:55.369Z,2896
2018-01-25T09:06:20.855Z,2896
2018-01-25T09:06:46.374Z,2904
2018-01-25T09:07:11.896Z,2928
2018-01-25T09:07:37.431Z,2972
2018-01-25T09:08:02.947Z,3016
2018-01-25T09:08:28.415Z,3080
2018-01-25T09:08:53.870Z,3152
2018-01-25T09:09:19.381Z,3236
2018-01-25T09:09:44.890Z,3300
2018-01-25T09:10:10.444Z,3352
2018-01-25T09:10:35.980Z,3388
2018-01-25T09:11:01.432Z,3412
2018-01-25T09:11:27.028Z,3424
2018-01-25T09:11:52.471Z,3432
2018-01-25T09:13:11.393Z,3492
2018-01-25T09:13:36.892Z,3536
2018-01-25T09:14:02.375Z,3580
2018-01-25T09:15:16.168Z,3656
2018-01-25T09:15:41.694Z,3648
2018-01-25T09:16:07.182Z,3640
2018-01-25T09:16:32.677Z,3616
2018-01-25T09:16:58.176Z,3600
2018-01-25T09:17:23.681Z,3600
2018-01-25T09:17:49.190Z,3596
2018-01-25T09:18:14.654Z,3588
2018-01-25T09:18:40.158Z,3576
2018-01-25T09:19:05.709Z,3560
2018-01-25T09:19:31.230Z,3524
2018-01-25T09:19:56.648Z,3460
2018-01-25T09:20:22.127Z,3288
2018-01-25T09:20:47.614Z,3060
2018-01-25T09:21:13.099Z,2812
2018-01-25T09:21:38.602Z,2576
2018-01-25T09:22:04.079Z,2380
2018-01-25T09:22:29.605Z,2232
2018-01-25T09:22:55.046Z,2128
2018-01-25T09:23:20.532Z,2068
2018-01-25T09:23:46.026Z,2044
2018-01-25T09:24:11.628Z,2060
2018-01-25T09:24:37.148Z,2112
2018-01-25T09:25:02.607Z,2196
2018-01-25T09:25:28.146Z,2308
2018-01-25T09:25:53.615Z,2416
2018-01-25T09:26:19.074Z,2524
2018-01-25T09:26:44.549Z,2612
2018-01-25T09:27:10.034Z,2660
2018-01-25T09:27:35.553Z,2720
2018-01-25T09:28:01.064Z,2792
2018-01-25T09:28:26.694Z,2804
2018-01-25T09:28:52.211Z,2856
2018-01-25T09:29:17.723Z,2884
2018-01-25T09:29:43.244Z,2856
2018-01-25T09:30:08.749Z,2880
2018-01-25T09:30:34.212Z,2916
2018-01-25T09:30:59.682Z,2912
2018-01-25T09:31:25.176Z,2904
2018-01-25T09:31:50.681Z,2948
2018-01-25T09:32:16.129Z,3004
2018-01-25T09:32:41.613Z,3024
2018-01-25T09:33:07.117Z,2972
2018-01-25T09:33:32.621Z,2952
2018-01-25T09:33:58.118Z,3028
2018-01-25T09:34:23.605Z,3096
2018-01-25T09:35:32.335Z,3028
2018-01-25T09:35:57.831Z,3056
2018-01-25T09:36:23.286Z,3016
2018-01-25T09:36:48.777Z,2984
2018-01-25T09:37:14.287Z,2992
2018-01-25T09:37:39.838Z,2992
2018-01-25T09:38:05.299Z,2956
2018-01-25T09:38:30.763Z,2984
2018-01-25T09:38:56.260Z,3032
2018-01-25T09:39:21.765Z,3088
2018-01-25T09:40:45.828Z,3220
2018-01-25T09:41:11.312Z,3220
2018-01-25T09:41:36.857Z,3244
2018-01-25T09:42:02.282Z,3240
2018-01-25T09:42:27.747Z,3268
2018-01-25T09:42:53.293Z,3292
2018-01-25T09:43:18.775Z,3320
2018-01-25T09:43:44.231Z,3352
2018-01-25T09:44:09.716Z,3384
2018-01-25T09:44:35.218Z,3400
2018-01-25T09:45:00.709Z,3392
2018-01-25T09:45:26.205Z,3424
2018-01-25T09:45:51.734Z,3460
2018-01-25T09:46:17.211Z,3500
2018-01-25T09:46:42.750Z,3536
2018-01-25T09:47:08.231Z,3564
2018-01-25T09:47:33.762Z,3592
2018-01-25T09:47:59.222Z,3624
2018-01-25T09:48:24.720Z,3668
2018-01-25T09:48:50.221Z,3672
2018-01-25T09:49:15.707Z,3704
2018-01-25T09:49:41.218Z,3688
2018-01-25T09:50:06.743Z,3660
2018-01-25T09:50:32.180Z,3644
2018-01-25T09:50:57.688Z,3648
2018-01-25T09:52:11.447Z,3680
2018-01-25T09:52:36.932Z,3664
2018-01-25T09:53:02.406Z,3772
2018-01-25T09:53:27.922Z,3860
2018-01-25T09:54:31.512Z,4040
2018-01-25T09:54:56.993Z,4096
2018-01-25T09:55:22.515Z,4124
2018-01-25T09:55:47.976Z,4152
2018-01-25T09:56:13.432Z,4108
2018-01-25T09:56:39.014Z,4140
2018-01-25T09:57:04.449Z,4160
2018-01-25T09:57:29.903Z,4192
2018-01-25T09:57:55.396Z,4216
2018-01-25T09:58:20.898Z,4208
2018-01-25T09:58:46.389Z,4196
2018-01-25T09:59:11.891Z,4120
2018-01-25T09:59:37.396Z,4144
2018-01-25T10:00:02.927Z,4184
2018-01-25T10:00:28.489Z,4184
2018-01-25T10:01:37.193Z,4140
2018-01-25T10:02:02.673Z,4136
2018-01-25T10:02:28.240Z,4136
2018-01-25T10:02:53.730Z,4136
2018-01-25T10:03:19.203Z,4144
2018-01-25T10:03:44.703Z,4160
2018-01-25T10:04:10.179Z,4172
2018-01-25T10:04:35.674Z,4188
2018-01-25T10:05:01.162Z,4204
2018-01-25T10:05:26.664Z,4224
2018-01-25T10:05:52.140Z,4200
2018-01-25T10:06:17.606Z,4172
2018-01-25T10:06:43.070Z,4212
2018-01-25T10:07:08.582Z,4244
2018-01-25T10:07:34.018Z,4264
2018-01-25T10:07:59.561Z,4240
2018-01-25T10:08:24.990Z,3992
2018-01-25T10:09:33.705Z,4216
2018-01-25T10:09:59.195Z,4240
2018-01-25T10:10:24.668Z,4232
2018-01-25T10:10:50.307Z,4204
2018-01-25T10:11:15.872Z,4244
2018-01-25T10:11:41.405Z,4288
2018-01-25T10:12:06.927Z,4328
2018-01-25T10:13:21.014Z,4412
2018-01-25T10:13:46.488Z,4484
2018-01-25T10:14:11.976Z,4472
2018-01-25T10:14:37.485Z,4488
2018-01-25T10:15:03.087Z,4492
2018-01-25T10:15:28.584Z,4392
2018-01-25T10:15:54.146Z,4224
2018-01-25T10:16:19.588Z,4096
2018-01-25T10:16:45.105Z,3948
2018-01-25T10:17:10.650Z,4000
2018-01-25T10:17:36.195Z,4176
2018-01-25T10:18:01.699Z,4248
2018-01-25T10:18:27.194Z,4400
2018-01-25T10:18:52.721Z,4552
2018-01-25T10:19:18.321Z,4608
2018-01-25T10:19:43.846Z,4612
2018-01-25T10:20:09.379Z,4616
2018-01-25T10:20:34.892Z,4528
2018-01-25T10:21:00.443Z,4520
2018-01-25T10:21:26.000Z,4600
2018-01-25T10:21:51.489Z,4592
2018-01-25T10:22:17.008Z,4608
2018-01-25T10:22:42.454Z,4608
2018-01-25T10:23:07.988Z,4588
2018-01-25T10:23:33.399Z,4528
2018-01-25T10:23:58.892Z,4636
2018-01-25T10:24:24.396Z,4576
2018-01-25T10:24:49.849Z,4384
2018-01-25T10:25:15.313Z,4484
2018-01-25T10:25:40.895Z,4592
2018-01-25T10:26:06.416Z,4516
2018-01-25T10:26:31.950Z,4356
2018-01-25T10:26:57.390Z,4480
2018-01-25T10:27:22.941Z,4492
2018-01-25T10:27:48.395Z,4404
2018-01-25T10:28:13.874Z,4352
2018-01-25T10:28:39.448Z,4364
2018-01-25T10:29:04.953Z,4320
2018-01-25T10:29:30.442Z,4284
2018-01-25T10:29:55.976Z,4340
2018-01-25T10:30:21.469Z,4412
2018-01-25T10:30:47.032Z,4596
2018-01-25T10:31:12.536Z,4648
2018-01-25T10:31:38.000Z,4652
2018-01-25T10:32:03.568Z,4740
2018-01-25T10:32:29.020Z,4700
2018-01-25T10:32:54.550Z,4600
2018-01-25T10:33:20.040Z,4580
2018-01-25T10:33:45.559Z,4648
2018-01-25T10:34:11.136Z,4756
2018-01-25T10:34:36.643Z,4848
2018-01-25T10:35:02.108Z,4884
2018-01-25T10:35:27.539Z,4908
2018-01-25T10:35:53.046Z,4980
2018-01-25T10:36:18.504Z,4988
2018-01-25T10:36:43.996Z,4992
2018-01-25T10:37:09.516Z,4968
2018-01-25T10:37:35.018Z,5008
2018-01-25T10:38:00.474Z,5008
2018-01-25T10:38:25.913Z,5028
2018-01-25T10:38:51.485Z,5076
2018-01-25T10:39:16.927Z,5104
2018-01-25T10:39:42.392Z,5104
2018-01-25T10:40:07.915Z,5084
2018-01-25T10:40:33.387Z,5068
2018-01-25T10:40:58.918Z,5024
2018-01-25T10:41:24.404Z,5012
2018-01-25T10:41:49.871Z,5028
2018-01-25T10:42:15.364Z,5052
2018-01-25T10:42:40.905Z,5052
2018-01-25T10:43:06.398Z,5036
2018-01-25T10:43:31.951Z,5008
2018-01-25T10:43:57.404Z,4988
2018-01-25T10:44:22.983Z,4956
2018-01-25T10:44:48.436Z,4916
2018-01-25T10:45:13.906Z,4856
2018-01-25T10:45:39.369Z,4828
2018-01-25T10:46:04.815Z,4832
2018-01-25T10:46:30.251Z,4864
2018-01-25T10:46:55.769Z,4876
2018-01-25T10:47:21.241Z,4896
2018-01-25T10:47:46.685Z,4908
2018-01-25T10:48:12.144Z,4936
2018-01-25T10:48:37.624Z,4940
2018-01-25T10:49:03.119Z,4952
2018-01-25T10:49:28.630Z,4932
2018-01-25T10:49:54.115Z,4928
2018-01-25T10:50:19.594Z,4908
2018-01-25T10:50:45.060Z,4912
2018-01-25T10:51:10.564Z,4932
2018-01-25T10:51:36.056Z,4968
2018-01-25T10:52:01.529Z,4992
2018-01-25T10:52:26.940Z,4904
2018-01-25T10:52:52.423Z,4852
2018-01-25T10:53:17.908Z,4900
2018-01-25T10:53:43.395Z,4932
2018-01-25T10:54:08.834Z,4960
2018-01-25T10:54:34.313Z,4936
2018-01-25T10:54:59.798Z,4868
2018-01-25T10:55:25.329Z,4708
2018-01-25T10:55:50.778Z,4756
2018-01-25T10:56:16.231Z,4744
2018-01-25T10:56:41.704Z,4672
2018-01-25T10:57:07.175Z,4704
2018-01-25T10:57:32.653Z,4680
2018-01-25T10:57:58.170Z,4656
2018-01-25T10:58:23.628Z,4724
2018-01-25T10:58:49.098Z,4856
2018-01-25T10:59:14.537Z,4864
2018-01-25T10:59:40.040Z,4868
2018-01-25T11:00:05.528Z,4908
2018-01-25T11:00:30.976Z,4932
2018-01-25T11:00:56.475Z,4972
2018-01-25T11:01:21.919Z,5056
2018-01-25T11:01:47.431Z,5104
2018-01-25T11:02:12.877Z,5108
2018-01-25T11:02:38.376Z,5104
2018-01-25T11:03:03.913Z,5164
2018-01-25T11:03:29.500Z,5188
2018-01-25T11:03:54.981Z,5120
2018-01-25T11:04:20.424Z,4972
2018-01-25T11:04:45.868Z,5060
2018-01-25T11:05:11.351Z,5128
2018-01-25T11:05:36.796Z,5192
2018-01-25T11:06:02.240Z,5256
2018-01-25T11:06:27.775Z,5308
2018-01-25T11:06:53.202Z,5320
2018-01-25T11:07:18.663Z,5280
2018-01-25T11:07:44.170Z,5256
2018-01-25T11:08:09.624Z,5208
2018-01-25T11:08:35.132Z,5192
2018-01-25T11:09:00.564Z,5180
2018-01-25T11:09:26.063Z,5108
2018-01-25T11:09:51.542Z,5188
2018-01-25T11:10:17.011Z,5288
2018-01-25T11:10:42.455Z,5340
2018-01-25T11:11:07.940Z,5368
2018-01-25T11:11:33.397Z,5388
2018-01-25T11:11:58.908Z,5396
2018-01-25T11:12:24.369Z,5400
2018-01-25T11:12:49.845Z,5400
2018-01-25T11:13:15.325Z,5224
2018-01-25T11:13:40.808Z,5204
2018-01-25T11:14:06.293Z,5316
2018-01-25T11:14:31.762Z,5440
2018-01-25T11:14:57.262Z,5508
2018-01-25T11:15:22.693Z,5584
2018-01-25T11:15:48.171Z,5712
2018-01-25T11:16:13.706Z,5832
2018-01-25T11:16:39.139Z,5924
2018-01-25T11:17:04.609Z,5964
2018-01-25T11:17:30.062Z,5888
2018-01-25T11:17:55.558Z,5656
2018-01-25T11:18:21.004Z,5604
2018-01-25T11:18:46.575Z,5836
2018-01-25T11:19:12.065Z,6036
2018-01-25T11:19:37.514Z,6168
2018-01-25T11:20:02.971Z,6244
2018-01-25T11:20:28.491Z,6308
2018-01-25T11:20:53.947Z,6356
2018-01-25T11:21:19.462Z,6376
2018-01-25T11:21:44.888Z,6352
2018-01-25T11:22:10.342Z,6356
2018-01-25T11:22:35.817Z,6328
2018-01-25T11:23:01.275Z,6280
2018-01-25T11:23:26.813Z,6244
2018-01-25T11:23:52.344Z,6124